sensor_id;sensor_type;location;lat;lon;timestamp;pressure;altitude;pressure_sealevel;temperature;humidity
25350;BME280;13302;48.796;11.978;2024-03-08T00:01:35;96897.66;;;5.87;33.32
25350;BME280;13302;48.796;11.978;2024-03-08T00:04:22;96899.47;;;5.92;33.33
25350;BME280;13302;48.796;11.978;2024-03-08T00:07:09;96898.34;;;5.93;33.38
25350;BME280;13302;48.796;11.978;2024-03-08T00:09:56;96900.56;;;5.82;33.62
25350;BME280;13302;48.796;11.978;2024-03-08T00:12:44;96898.78;;;5.86;33.52
25350;BME280;13302;48.796;11.978;2024-03-08T00:15:32;96890.03;;;5.67;34.04
25350;BME280;13302;48.796;11.978;2024-03-08T00:18:19;96884.44;;;5.81;33.62
25350;BME280;13302;48.796;11.978;2024-03-08T00:21:06;96889.75;;;5.77;33.75
25350;BME280;13302;48.796;11.978;2024-03-08T00:23:55;96879.56;;;5.78;33.56
25350;BME280;13302;48.796;11.978;2024-03-08T00:26:42;96871.84;;;5.88;33.42
25350;BME280;13302;48.796;11.978;2024-03-08T00:29:30;96866.81;;;5.82;33.57
25350;BME280;13302;48.796;11.978;2024-03-08T00:32:17;96869.41;;;5.78;33.73
25350;BME280;13302;48.796;11.978;2024-03-08T00:35:04;96871.34;;;5.86;33.70
25350;BME280;13302;48.796;11.978;2024-03-08T00:37:54;96869.59;;;5.90;33.44
25350;BME280;13302;48.796;11.978;2024-03-08T00:40:43;96865.56;;;5.88;33.37
25350;BME280;13302;48.796;11.978;2024-03-08T00:43:30;96860.38;;;5.86;33.49
25350;BME280;13302;48.796;11.978;2024-03-08T00:46:17;96861.53;;;5.85;33.46
25350;BME280;13302;48.796;11.978;2024-03-08T00:49:04;96857.63;;;5.86;33.56
25350;BME280;13302;48.796;11.978;2024-03-08T00:51:51;96852.97;;;5.87;33.65
25350;BME280;13302;48.796;11.978;2024-03-08T00:54:38;96843.91;;;5.86;33.46
25350;BME280;13302;48.796;11.978;2024-03-08T00:57:25;96847.81;;;5.85;33.59
25350;BME280;13302;48.796;11.978;2024-03-08T01:00:12;96841.50;;;5.76;33.53
25350;BME280;13302;48.796;11.978;2024-03-08T01:03:00;96842.16;;;5.73;33.63
25350;BME280;13302;48.796;11.978;2024-03-08T01:05:47;96833.88;;;5.56;34.03
25350;BME280;13302;48.796;11.978;2024-03-08T01:08:34;96837.91;;;5.59;34.04
25350;BME280;13302;48.796;11.978;2024-03-08T01:11:21;96831.13;;;5.47;33.94
25350;BME280;13302;48.796;11.978;2024-03-08T01:14:08;96829.97;;;5.57;33.84
25350;BME280;13302;48.796;11.978;2024-03-08T01:16:55;96822.75;;;5.61;33.92
25350;BME280;13302;48.796;11.978;2024-03-08T01:19:42;96819.53;;;5.59;34.06
25350;BME280;13302;48.796;11.978;2024-03-08T01:22:31;96810.78;;;5.57;33.94
25350;BME280;13302;48.796;11.978;2024-03-08T01:25:18;96808.06;;;5.48;33.93
25350;BME280;13302;48.796;11.978;2024-03-08T01:28:05;96809.03;;;5.52;33.85
25350;BME280;13302;48.796;11.978;2024-03-08T01:30:53;96809.81;;;5.53;33.84
25350;BME280;13302;48.796;11.978;2024-03-08T01:33:43;96795.94;;;5.49;33.82
25350;BME280;13302;48.796;11.978;2024-03-08T01:36:30;96802.06;;;5.46;34.01
25350;BME280;13302;48.796;11.978;2024-03-08T01:39:17;96799.00;;;5.39;33.79
25350;BME280;13302;48.796;11.978;2024-03-08T01:42:04;96793.00;;;5.29;34.08
25350;BME280;13302;48.796;11.978;2024-03-08T01:44:52;96793.63;;;5.26;34.32
25350;BME280;13302;48.796;11.978;2024-03-08T01:47:39;96792.50;;;5.18;34.27
25350;BME280;13302;48.796;11.978;2024-03-08T01:50:26;96786.81;;;5.06;34.27
25350;BME280;13302;48.796;11.978;2024-03-08T01:53:14;96776.16;;;5.04;34.47
25350;BME280;13302;48.796;11.978;2024-03-08T01:56:02;96776.97;;;5.05;34.59
25350;BME280;13302;48.796;11.978;2024-03-08T01:58:49;96770.19;;;5.02;34.65
25350;BME280;13302;48.796;11.978;2024-03-08T02:01:37;96766.16;;;5.00;34.63
25350;BME280;13302;48.796;11.978;2024-03-08T02:04:24;96761.31;;;4.97;34.71
25350;BME280;13302;48.796;11.978;2024-03-08T02:07:11;96760.84;;;4.95;34.85
25350;BME280;13302;48.796;11.978;2024-03-08T02:09:58;96751.28;;;4.92;34.69
25350;BME280;13302;48.796;11.978;2024-03-08T02:12:46;96753.56;;;4.90;34.77
25350;BME280;13302;48.796;11.978;2024-03-08T02:15:57;96749.66;;;4.83;34.97
25350;BME280;13302;48.796;11.978;2024-03-08T02:18:47;96743.22;;;4.87;35.04
25350;BME280;13302;48.796;11.978;2024-03-08T02:21:34;96746.78;;;4.88;35.10
25350;BME280;13302;48.796;11.978;2024-03-08T02:24:21;96750.81;;;4.90;34.90
25350;BME280;13302;48.796;11.978;2024-03-08T02:27:10;96752.75;;;4.90;34.94
25350;BME280;13302;48.796;11.978;2024-03-08T02:29:58;96754.84;;;4.93;35.17
25350;BME280;13302;48.796;11.978;2024-03-08T02:32:46;96755.16;;;4.91;35.24
25350;BME280;13302;48.796;11.978;2024-03-08T02:35:34;96752.75;;;4.90;35.05
25350;BME280;13302;48.796;11.978;2024-03-08T02:38:22;96741.63;;;4.86;35.03
25350;BME280;13302;48.796;11.978;2024-03-08T02:41:11;96750.47;;;4.92;35.02
25350;BME280;13302;48.796;11.978;2024-03-08T02:43:59;96746.16;;;4.91;35.01
25350;BME280;13302;48.796;11.978;2024-03-08T02:46:47;96742.78;;;4.94;34.91
25350;BME280;13302;48.796;11.978;2024-03-08T02:49:34;96744.41;;;4.95;34.80
25350;BME280;13302;48.796;11.978;2024-03-08T02:52:21;96737.28;;;4.94;34.95
25350;BME280;13302;48.796;11.978;2024-03-08T02:55:09;96739.22;;;4.93;34.99
25350;BME280;13302;48.796;11.978;2024-03-08T02:57:59;96743.41;;;4.91;35.07
25350;BME280;13302;48.796;11.978;2024-03-08T03:00:47;96735.03;;;4.96;35.01
25350;BME280;13302;48.796;11.978;2024-03-08T03:03:34;96735.38;;;4.94;35.04
25350;BME280;13302;48.796;11.978;2024-03-08T03:06:21;96730.22;;;5.01;35.29
25350;BME280;13302;48.796;11.978;2024-03-08T03:09:08;96727.34;;;5.06;34.68
25350;BME280;13302;48.796;11.978;2024-03-08T03:11:57;96727.81;;;5.08;34.60
25350;BME280;13302;48.796;11.978;2024-03-08T03:14:45;96718.00;;;5.07;34.61
25350;BME280;13302;48.796;11.978;2024-03-08T03:17:32;96718.44;;;5.01;34.70
25350;BME280;13302;48.796;11.978;2024-03-08T03:20:19;96715.84;;;4.96;34.63
25350;BME280;13302;48.796;11.978;2024-03-08T03:23:27;96711.16;;;4.88;34.81
25350;BME280;13302;48.796;11.978;2024-03-08T03:26:14;96709.75;;;4.90;34.84
25350;BME280;13302;48.796;11.978;2024-03-08T03:29:07;96709.75;;;4.90;34.66
25350;BME280;13302;48.796;11.978;2024-03-08T03:31:55;96708.25;;;4.84;34.78
25350;BME280;13302;48.796;11.978;2024-03-08T03:34:44;96702.78;;;4.84;34.79
25350;BME280;13302;48.796;11.978;2024-03-08T03:37:31;96711.13;;;4.79;34.82
25350;BME280;13302;48.796;11.978;2024-03-08T03:40:18;96711.13;;;4.79;34.99
25350;BME280;13302;48.796;11.978;2024-03-08T03:43:06;96706.94;;;4.73;35.00
25350;BME280;13302;48.796;11.978;2024-03-08T03:45:54;96710.59;;;4.69;35.07
25350;BME280;13302;48.796;11.978;2024-03-08T03:48:42;96705.59;;;4.62;35.02
25350;BME280;13302;48.796;11.978;2024-03-08T03:51:30;96706.19;;;4.59;35.25
25350;BME280;13302;48.796;11.978;2024-03-08T03:54:17;96698.63;;;4.56;35.32
25350;BME280;13302;48.796;11.978;2024-03-08T03:57:04;96705.72;;;4.57;35.24
25350;BME280;13302;48.796;11.978;2024-03-08T03:59:51;96704.22;;;4.51;35.51
25350;BME280;13302;48.796;11.978;2024-03-08T04:02:39;96703.28;;;4.55;35.26
25350;BME280;13302;48.796;11.978;2024-03-08T04:05:27;96699.09;;;4.49;35.38
25350;BME280;13302;48.796;11.978;2024-03-08T04:08:15;96694.72;;;4.48;35.57
25350;BME280;13302;48.796;11.978;2024-03-08T04:11:03;96699.25;;;4.53;35.27
25350;BME280;13302;48.796;11.978;2024-03-08T04:13:50;96696.53;;;4.53;35.65
25350;BME280;13302;48.796;11.978;2024-03-08T04:16:37;96700.25;;;4.57;35.31
25350;BME280;13302;48.796;11.978;2024-03-08T04:19:24;96691.06;;;4.53;35.32
25350;BME280;13302;48.796;11.978;2024-03-08T04:22:13;96692.00;;;4.48;35.47
25350;BME280;13302;48.796;11.978;2024-03-08T04:25:00;96690.88;;;4.49;35.31
25350;BME280;13302;48.796;11.978;2024-03-08T04:27:47;96686.53;;;4.48;35.51
25350;BME280;13302;48.796;11.978;2024-03-08T04:30:36;96697.88;;;4.33;35.86
25350;BME280;13302;48.796;11.978;2024-03-08T04:33:24;96687.28;;;4.40;35.63
25350;BME280;13302;48.796;11.978;2024-03-08T04:36:11;96682.78;;;4.44;35.56
25350;BME280;13302;48.796;11.978;2024-03-08T04:39:00;96689.25;;;4.48;35.52
25350;BME280;13302;48.796;11.978;2024-03-08T04:41:47;96682.03;;;4.52;35.50
25350;BME280;13302;48.796;11.978;2024-03-08T04:44:39;96676.03;;;4.50;35.45
25350;BME280;13302;48.796;11.978;2024-03-08T04:47:26;96676.09;;;4.59;35.51
25350;BME280;13302;48.796;11.978;2024-03-08T04:50:13;96667.06;;;4.58;35.30
25350;BME280;13302;48.796;11.978;2024-03-08T04:53:00;96675.09;;;4.55;35.53
25350;BME280;13302;48.796;11.978;2024-03-08T04:55:47;96676.50;;;4.44;35.80
25350;BME280;13302;48.796;11.978;2024-03-08T04:58:37;96673.31;;;4.42;35.90
25350;BME280;13302;48.796;11.978;2024-03-08T05:01:24;96676.34;;;4.40;36.04
25350;BME280;13302;48.796;11.978;2024-03-08T05:04:12;96670.53;;;4.33;36.16
25350;BME280;13302;48.796;11.978;2024-03-08T05:06:59;96676.94;;;4.29;36.26
25350;BME280;13302;48.796;11.978;2024-03-08T05:09:48;96674.50;;;4.27;36.06
25350;BME280;13302;48.796;11.978;2024-03-08T05:12:38;96676.44;;;4.27;36.02
25350;BME280;13302;48.796;11.978;2024-03-08T05:15:25;96674.69;;;4.31;35.91
25350;BME280;13302;48.796;11.978;2024-03-08T05:18:12;96675.19;;;4.33;35.89
25350;BME280;13302;48.796;11.978;2024-03-08T05:21:01;96668.09;;;4.32;35.82
25350;BME280;13302;48.796;11.978;2024-03-08T05:23:50;96668.09;;;4.32;35.52
25350;BME280;13302;48.796;11.978;2024-03-08T05:26:38;96674.56;;;4.36;35.30
25350;BME280;13302;48.796;11.978;2024-03-08T05:29:25;96663.94;;;4.43;35.16
25350;BME280;13302;48.796;11.978;2024-03-08T05:32:12;96670.69;;;4.37;35.40
25350;BME280;13302;48.796;11.978;2024-03-08T05:34:59;96659.56;;;4.33;35.46
25350;BME280;13302;48.796;11.978;2024-03-08T05:37:46;96662.63;;;4.32;35.52
25350;BME280;13302;48.796;11.978;2024-03-08T05:40:33;96653.00;;;4.43;35.37
25350;BME280;13302;48.796;11.978;2024-03-08T05:43:20;96654.78;;;4.47;35.30
25350;BME280;13302;48.796;11.978;2024-03-08T05:46:08;96642.84;;;4.43;35.31
25350;BME280;13302;48.796;11.978;2024-03-08T05:48:55;96645.75;;;4.47;35.26
25350;BME280;13302;48.796;11.978;2024-03-08T05:51:42;96642.59;;;4.53;35.36
25350;BME280;13302;48.796;11.978;2024-03-08T05:54:29;96645.53;;;4.66;35.10
25350;BME280;13302;48.796;11.978;2024-03-08T05:57:16;96641.84;;;4.70;35.07
25350;BME280;13302;48.796;11.978;2024-03-08T06:00:04;96645.81;;;4.64;35.24
25350;BME280;13302;48.796;11.978;2024-03-08T06:02:58;96640.34;;;4.64;35.17
25350;BME280;13302;48.796;11.978;2024-03-08T06:05:45;96635.00;;;4.50;35.36
25350;BME280;13302;48.796;11.978;2024-03-08T06:08:32;96638.41;;;4.56;35.45
25350;BME280;13302;48.796;11.978;2024-03-08T06:11:20;96632.25;;;4.50;35.25
25350;BME280;13302;48.796;11.978;2024-03-08T06:14:07;96624.03;;;4.50;35.38
25350;BME280;13302;48.796;11.978;2024-03-08T06:16:54;96628.53;;;4.46;35.61
25350;BME280;13302;48.796;11.978;2024-03-08T06:19:41;96629.19;;;4.43;35.63
25350;BME280;13302;48.796;11.978;2024-03-08T06:22:28;96629.47;;;4.33;35.81
25350;BME280;13302;48.796;11.978;2024-03-08T06:25:17;96633.16;;;4.29;35.83
25350;BME280;13302;48.796;11.978;2024-03-08T06:28:04;96635.38;;;4.27;35.97
25350;BME280;13302;48.796;11.978;2024-03-08T06:30:51;96638.97;;;4.36;35.98
25350;BME280;13302;48.796;11.978;2024-03-08T06:33:38;96637.34;;;4.35;36.07
25350;BME280;13302;48.796;11.978;2024-03-08T06:36:26;96628.03;;;4.36;35.99
25350;BME280;13302;48.796;11.978;2024-03-08T06:39:13;96624.28;;;4.23;36.42
25350;BME280;13302;48.796;11.978;2024-03-08T06:42:00;96628.94;;;4.23;36.48
25350;BME280;13302;48.796;11.978;2024-03-08T06:44:47;96637.66;;;4.25;36.65
25350;BME280;13302;48.796;11.978;2024-03-08T06:47:37;96636.66;;;4.21;36.59
25350;BME280;13302;48.796;11.978;2024-03-08T06:50:24;96636.16;;;4.19;36.82
25350;BME280;13302;48.796;11.978;2024-03-08T06:53:12;96634.41;;;4.23;36.87
25350;BME280;13302;48.796;11.978;2024-03-08T06:56:01;96630.81;;;4.13;37.24
25350;BME280;13302;48.796;11.978;2024-03-08T06:58:48;96635.69;;;4.17;37.45
25350;BME280;13302;48.796;11.978;2024-03-08T07:01:36;96639.47;;;4.38;36.97
25350;BME280;13302;48.796;11.978;2024-03-08T07:04:23;96634.78;;;4.38;37.14
25350;BME280;13302;48.796;11.978;2024-03-08T07:07:13;96631.59;;;4.45;37.31
25350;BME280;13302;48.796;11.978;2024-03-08T07:10:00;96627.63;;;4.59;36.78
25350;BME280;13302;48.796;11.978;2024-03-08T07:12:47;96633.75;;;4.65;36.62
25350;BME280;13302;48.796;11.978;2024-03-08T07:15:34;96632.69;;;4.75;36.38
25350;BME280;13302;48.796;11.978;2024-03-08T07:18:22;96634.44;;;4.79;36.21
25350;BME280;13302;48.796;11.978;2024-03-08T07:21:10;96636.22;;;4.75;36.48
25350;BME280;13302;48.796;11.978;2024-03-08T07:24:00;96628.00;;;4.75;36.72
25350;BME280;13302;48.796;11.978;2024-03-08T07:26:47;96624.31;;;4.88;36.08
25350;BME280;13302;48.796;11.978;2024-03-08T07:29:36;96634.66;;;4.83;36.46
25350;BME280;13302;48.796;11.978;2024-03-08T07:32:23;96631.72;;;4.79;36.48
25350;BME280;13302;48.796;11.978;2024-03-08T07:35:12;96633.81;;;4.74;36.73
25350;BME280;13302;48.796;11.978;2024-03-08T07:38:00;96637.66;;;4.73;36.88
25350;BME280;13302;48.796;11.978;2024-03-08T07:40:49;96627.84;;;4.80;36.95
25350;BME280;13302;48.796;11.978;2024-03-08T07:43:36;96625.47;;;4.79;36.88
25350;BME280;13302;48.796;11.978;2024-03-08T07:46:23;96625.78;;;4.94;36.74
25350;BME280;13302;48.796;11.978;2024-03-08T07:49:10;96622.56;;;5.01;36.45
25350;BME280;13302;48.796;11.978;2024-03-08T07:51:58;96633.38;;;4.97;36.83
25350;BME280;13302;48.796;11.978;2024-03-08T07:54:46;96628.53;;;4.94;36.98
25350;BME280;13302;48.796;11.978;2024-03-08T07:57:33;96623.22;;;4.98;36.93
25350;BME280;13302;48.796;11.978;2024-03-08T08:00:20;96616.94;;;4.97;37.28
25350;BME280;13302;48.796;11.978;2024-03-08T08:03:08;96610.97;;;5.04;37.25
25350;BME280;13302;48.796;11.978;2024-03-08T08:05:55;96610.66;;;5.05;37.25
25350;BME280;13302;48.796;11.978;2024-03-08T08:08:43;96615.66;;;5.12;37.28
25350;BME280;13302;48.796;11.978;2024-03-08T08:11:30;96616.16;;;5.14;37.25
25350;BME280;13302;48.796;11.978;2024-03-08T08:14:17;96604.06;;;5.15;37.05
25350;BME280;13302;48.796;11.978;2024-03-08T08:17:05;96609.03;;;5.22;37.02
25350;BME280;13302;48.796;11.978;2024-03-08T08:19:52;96611.78;;;5.22;37.14
25350;BME280;13302;48.796;11.978;2024-03-08T08:22:39;96604.84;;;5.24;37.10
25350;BME280;13302;48.796;11.978;2024-03-08T08:25:27;96599.06;;;5.26;37.18
25350;BME280;13302;48.796;11.978;2024-03-08T08:28:14;96593.72;;;5.38;36.96
25350;BME280;13302;48.796;11.978;2024-03-08T08:31:01;96591.63;;;5.35;37.25
25350;BME280;13302;48.796;11.978;2024-03-08T08:33:50;96585.84;;;5.36;37.16
25350;BME280;13302;48.796;11.978;2024-03-08T08:36:40;96585.34;;;5.43;36.88
25350;BME280;13302;48.796;11.978;2024-03-08T08:39:27;96582.75;;;5.46;37.04
25350;BME280;13302;48.796;11.978;2024-03-08T08:42:14;96573.72;;;5.46;36.87
25350;BME280;13302;48.796;11.978;2024-03-08T08:45:02;96584.69;;;5.46;37.49
25350;BME280;13302;48.796;11.978;2024-03-08T08:48:01;96586.31;;;5.47;37.11
25350;BME280;13302;48.796;11.978;2024-03-08T08:50:48;96575.81;;;5.49;37.03
25350;BME280;13302;48.796;11.978;2024-03-08T08:53:37;96574.03;;;5.53;37.20
25350;BME280;13302;48.796;11.978;2024-03-08T08:56:25;96565.16;;;5.56;37.20
25350;BME280;13302;48.796;11.978;2024-03-08T08:59:13;96573.38;;;5.65;36.92
25350;BME280;13302;48.796;11.978;2024-03-08T09:02:09;96573.84;;;5.67;37.26
25350;BME280;13302;48.796;11.978;2024-03-08T09:05:00;96567.38;;;5.71;36.99
25350;BME280;13302;48.796;11.978;2024-03-08T09:07:48;96563.50;;;5.72;37.28
25350;BME280;13302;48.796;11.978;2024-03-08T09:10:35;96563.16;;;5.82;36.96
25350;BME280;13302;48.796;11.978;2024-03-08T09:13:22;96553.31;;;5.81;37.06
25350;BME280;13302;48.796;11.978;2024-03-08T09:16:18;96551.03;;;5.83;37.16
25350;BME280;13302;48.796;11.978;2024-03-08T09:19:05;96543.78;;;5.87;37.11
25350;BME280;13302;48.796;11.978;2024-03-08T09:21:53;96536.31;;;5.96;37.02
25350;BME280;13302;48.796;11.978;2024-03-08T09:24:41;96538.75;;;5.98;37.06
25350;BME280;13302;48.796;11.978;2024-03-08T09:27:30;96528.72;;;6.02;37.08
25350;BME280;13302;48.796;11.978;2024-03-08T09:30:17;96530.94;;;6.17;36.50
25350;BME280;13302;48.796;11.978;2024-03-08T09:33:05;96527.47;;;6.29;36.00
25350;BME280;13302;48.796;11.978;2024-03-08T09:35:52;96522.78;;;6.29;36.05
25350;BME280;13302;48.796;11.978;2024-03-08T09:38:40;96523.66;;;6.21;36.21
25350;BME280;13302;48.796;11.978;2024-03-08T09:41:29;96517.41;;;6.41;35.54
25350;BME280;13302;48.796;11.978;2024-03-08T09:44:17;96516.97;;;6.31;36.00
25350;BME280;13302;48.796;11.978;2024-03-08T09:47:06;96524.88;;;6.32;36.36
25350;BME280;13302;48.796;11.978;2024-03-08T09:49:54;96524.28;;;6.27;36.74
25350;BME280;13302;48.796;11.978;2024-03-08T09:52:41;96514.25;;;6.31;36.71
25350;BME280;13302;48.796;11.978;2024-03-08T09:55:31;96519.06;;;6.34;36.74
25350;BME280;13302;48.796;11.978;2024-03-08T09:58:21;96508.03;;;6.42;36.35
25350;BME280;13302;48.796;11.978;2024-03-08T10:01:08;96513.47;;;6.51;36.27
25350;BME280;13302;48.796;11.978;2024-03-08T10:03:57;96513.47;;;6.51;36.42
25350;BME280;13302;48.796;11.978;2024-03-08T10:06:45;96510.50;;;6.56;36.36
25350;BME280;13302;48.796;11.978;2024-03-08T10:09:34;96501.63;;;6.59;36.07
25350;BME280;13302;48.796;11.978;2024-03-08T10:12:21;96499.13;;;6.66;36.03
25350;BME280;13302;48.796;11.978;2024-03-08T10:15:08;96491.69;;;6.67;36.30
25350;BME280;13302;48.796;11.978;2024-03-08T10:17:56;96498.13;;;6.71;36.42
25350;BME280;13302;48.796;11.978;2024-03-08T10:20:43;96490.34;;;6.73;36.37
25350;BME280;13302;48.796;11.978;2024-03-08T10:23:31;96483.84;;;6.77;36.46
25350;BME280;13302;48.796;11.978;2024-03-08T10:26:20;96486.22;;;6.87;36.09
25350;BME280;13302;48.796;11.978;2024-03-08T10:29:08;96485.13;;;7.01;35.34
25350;BME280;13302;48.796;11.978;2024-03-08T10:31:55;96490.88;;;7.08;35.05
25350;BME280;13302;48.796;11.978;2024-03-08T10:34:43;96477.94;;;7.08;34.63
25350;BME280;13302;48.796;11.978;2024-03-08T10:37:31;96480.88;;;7.03;34.88
25350;BME280;13302;48.796;11.978;2024-03-08T10:40:20;96475.41;;;7.03;35.41
25350;BME280;13302;48.796;11.978;2024-03-08T10:43:11;96470.22;;;7.02;35.46
25350;BME280;13302;48.796;11.978;2024-03-08T10:46:32;96478.31;;;7.19;34.15
25350;BME280;13302;48.796;11.978;2024-03-08T10:49:34;96477.09;;;7.28;34.15
25350;BME280;13302;48.796;11.978;2024-03-08T10:52:26;96464.44;;;7.36;33.82
25350;BME280;13302;48.796;11.978;2024-03-08T10:55:14;96466.09;;;7.28;34.41
25350;BME280;13302;48.796;11.978;2024-03-08T10:58:02;96465.03;;;7.21;35.10
25350;BME280;13302;48.796;11.978;2024-03-08T11:00:50;96470.19;;;7.22;35.33
25350;BME280;13302;48.796;11.978;2024-03-08T11:06:42;96456.19;;;7.36;34.93
25350;BME280;13302;48.796;11.978;2024-03-08T11:09:34;96451.13;;;7.38;34.74
25350;BME280;13302;48.796;11.978;2024-03-08T11:12:27;96446.56;;;7.54;33.92
25350;BME280;13302;48.796;11.978;2024-03-08T11:15:17;96444.41;;;7.60;33.97
25350;BME280;13302;48.796;11.978;2024-03-08T11:18:06;96435.63;;;7.66;33.48
25350;BME280;13302;48.796;11.978;2024-03-08T11:20:57;96434.09;;;7.57;34.27
25350;BME280;13302;48.796;11.978;2024-03-08T11:24:02;96435.25;;;7.56;34.29
25350;BME280;13302;48.796;11.978;2024-03-08T11:26:58;96436.28;;;7.75;33.49
25350;BME280;13302;48.796;11.978;2024-03-08T11:30:02;96425.53;;;7.70;33.72
25350;BME280;13302;48.796;11.978;2024-03-08T11:33:04;96416.91;;;7.60;34.26
25350;BME280;13302;48.796;11.978;2024-03-08T11:35:52;96419.44;;;7.77;33.85
25350;BME280;13302;48.796;11.978;2024-03-08T11:38:42;96399.72;;;7.75;33.79
25350;BME280;13302;48.796;11.978;2024-03-08T11:41:35;96404.44;;;7.74;34.10
25350;BME280;13302;48.796;11.978;2024-03-08T11:44:27;96391.34;;;7.71;34.21
25350;BME280;13302;48.796;11.978;2024-03-08T11:47:14;96393.53;;;7.78;34.09
25350;BME280;13302;48.796;11.978;2024-03-08T11:50:03;96402.13;;;7.89;33.79
25350;BME280;13302;48.796;11.978;2024-03-08T11:52:50;96392.50;;;7.95;33.84
25350;BME280;13302;48.796;11.978;2024-03-08T11:55:38;96388.47;;;8.04;33.63
25350;BME280;13302;48.796;11.978;2024-03-08T11:58:26;96384.00;;;8.00;33.64
25350;BME280;13302;48.796;11.978;2024-03-08T12:01:15;96373.44;;;8.02;33.78
25350;BME280;13302;48.796;11.978;2024-03-08T12:04:04;96378.03;;;7.98;33.80
25350;BME280;13302;48.796;11.978;2024-03-08T12:06:53;96373.34;;;7.98;33.96
25350;BME280;13302;48.796;11.978;2024-03-08T12:09:40;96370.69;;;8.02;34.16
25350;BME280;13302;48.796;11.978;2024-03-08T12:12:33;96364.50;;;8.05;34.11
25350;BME280;13302;48.796;11.978;2024-03-08T12:15:22;96359.66;;;8.14;33.80
25350;BME280;13302;48.796;11.978;2024-03-08T12:18:09;96357.25;;;8.12;34.15
25350;BME280;13302;48.796;11.978;2024-03-08T12:21:08;96354.25;;;8.17;33.67
25350;BME280;13302;48.796;11.978;2024-03-08T12:24:03;96352.41;;;8.21;33.65
25350;BME280;13302;48.796;11.978;2024-03-08T12:26:51;96348.19;;;8.24;34.16
25350;BME280;13302;48.796;11.978;2024-03-08T12:29:39;96344.03;;;8.30;33.68
25350;BME280;13302;48.796;11.978;2024-03-08T12:32:26;96347.78;;;8.38;32.96
25350;BME280;13302;48.796;11.978;2024-03-08T12:35:13;96344.44;;;8.44;32.71
25350;BME280;13302;48.796;11.978;2024-03-08T12:38:01;96335.97;;;8.37;33.46
25350;BME280;13302;48.796;11.978;2024-03-08T12:40:48;96344.06;;;8.46;32.89
25350;BME280;13302;48.796;11.978;2024-03-08T12:43:35;96336.53;;;8.43;33.36
25350;BME280;13302;48.796;11.978;2024-03-08T12:46:22;96332.16;;;8.42;33.48
25350;BME280;13302;48.796;11.978;2024-03-08T12:49:14;96331.81;;;8.43;33.41
25350;BME280;13302;48.796;11.978;2024-03-08T12:52:09;96326.75;;;8.45;33.28
25350;BME280;13302;48.796;11.978;2024-03-08T12:54:57;96320.56;;;8.48;33.41
25350;BME280;13302;48.796;11.978;2024-03-08T12:57:44;96313.56;;;8.51;33.39
25350;BME280;13302;48.796;11.978;2024-03-08T13:00:32;96302.53;;;8.51;33.30
25350;BME280;13302;48.796;11.978;2024-03-08T13:03:19;96298.28;;;8.53;33.44
25350;BME280;13302;48.796;11.978;2024-03-08T13:06:06;96304.25;;;8.55;33.44
25350;BME280;13302;48.796;11.978;2024-03-08T13:08:57;96299.19;;;8.57;33.44
25350;BME280;13302;48.796;11.978;2024-03-08T13:11:44;96301.59;;;8.59;33.28
25350;BME280;13302;48.796;11.978;2024-03-08T13:14:31;96302.41;;;8.59;33.05
25350;BME280;13302;48.796;11.978;2024-03-08T13:17:19;96301.69;;;8.62;33.08
25350;BME280;13302;48.796;11.978;2024-03-08T13:20:08;96296.97;;;8.63;33.29
25350;BME280;13302;48.796;11.978;2024-03-08T13:22:55;96305.72;;;8.65;33.41
25350;BME280;13302;48.796;11.978;2024-03-08T13:25:43;96280.19;;;8.68;33.18
25350;BME280;13302;48.796;11.978;2024-03-08T13:28:30;96285.72;;;8.68;33.03
25350;BME280;13302;48.796;11.978;2024-03-08T13:31:23;96284.94;;;8.83;31.95
25350;BME280;13302;48.796;11.978;2024-03-08T13:34:10;96283.31;;;8.82;32.05
25350;BME280;13302;48.796;11.978;2024-03-08T13:36:58;96273.00;;;8.79;32.38
25350;BME280;13302;48.796;11.978;2024-03-08T13:39:48;96267.78;;;8.90;31.79
25350;BME280;13302;48.796;11.978;2024-03-08T13:42:35;96271.59;;;8.85;32.27
25350;BME280;13302;48.796;11.978;2024-03-08T13:45:22;96270.00;;;8.84;32.30
25350;BME280;13302;48.796;11.978;2024-03-08T13:48:11;96263.69;;;8.84;32.28
25350;BME280;13302;48.796;11.978;2024-03-08T13:51:00;96259.78;;;8.85;32.21
25350;BME280;13302;48.796;11.978;2024-03-08T13:53:47;96250.38;;;8.86;32.50
25350;BME280;13302;48.796;11.978;2024-03-08T13:56:34;96252.41;;;8.89;32.30
25350;BME280;13302;48.796;11.978;2024-03-08T13:59:21;96247.69;;;8.89;32.62
25350;BME280;13302;48.796;11.978;2024-03-08T14:02:16;96238.53;;;9.01;31.38
25350;BME280;13302;48.796;11.978;2024-03-08T14:05:04;96240.91;;;9.02;31.35
25350;BME280;13302;48.796;11.978;2024-03-08T14:07:52;96232.56;;;8.99;31.61
25350;BME280;13302;48.796;11.978;2024-03-08T14:10:41;96223.84;;;8.97;31.78
25350;BME280;13302;48.796;11.978;2024-03-08T14:13:29;96223.06;;;8.96;31.89
25350;BME280;13302;48.796;11.978;2024-03-08T14:16:19;96225.47;;;8.98;31.47
25350;BME280;13302;48.796;11.978;2024-03-08T14:19:06;96218.97;;;9.06;31.40
25350;BME280;13302;48.796;11.978;2024-03-08T14:21:53;96216.97;;;9.06;31.11
25350;BME280;13302;48.796;11.978;2024-03-08T14:24:41;96219.31;;;9.04;31.34
25350;BME280;13302;48.796;11.978;2024-03-08T14:27:29;96206.16;;;9.13;30.16
25350;BME280;13302;48.796;11.978;2024-03-08T14:30:16;96204.63;;;9.16;30.35
25350;BME280;13302;48.796;11.978;2024-03-08T14:33:19;96203.63;;;9.24;29.47
25350;BME280;13302;48.796;11.978;2024-03-08T14:36:06;96201.59;;;9.21;29.76
25350;BME280;13302;48.796;11.978;2024-03-08T14:38:53;96195.81;;;9.26;28.89
25350;BME280;13302;48.796;11.978;2024-03-08T14:41:40;96205.78;;;9.31;28.46
25350;BME280;13302;48.796;11.978;2024-03-08T14:44:28;96190.44;;;9.33;28.65
25350;BME280;13302;48.796;11.978;2024-03-08T14:47:17;96197.78;;;9.26;29.07
25350;BME280;13302;48.796;11.978;2024-03-08T14:50:04;96192.00;;;9.15;29.51
25350;BME280;13302;48.796;11.978;2024-03-08T14:52:54;96200.97;;;9.12;30.16
25350;BME280;13302;48.796;11.978;2024-03-08T14:55:42;96195.03;;;9.10;30.12